Amherst, New Hampshire
Current Conditions -  °F | °C
As of 7:58 AM on Wednesday 22 Oct 2014 (Local Time) from KASH Reporting Station
Light Rain Light Rain  
Wind Chill: 11°   Ceiling: 900
Heat Index: 11°   Visibility: 3mi
Dew Point:   Wind: 8mph
Humidity: 88%   Direction: 30°NNE
Pressure: 30.06"   Gusts: 20mph
Location:  42.86°N, 71.63°W
Report Text: KASH 221158Z 03007G17KT 3SM -RA BR OVC009 11/09 A3006 RMK AO2 CIG 007V012 P0000 $
Loading
Personal Weather Stations






























Interactive Weather Map
Tropical Storm Tracking
New forecast layout! Learn more

10-Day Weather Forecast

Advertisements
Track Severe Weather on mobile